sensor_id;sensor_type;location;lat;lon;timestamp;P1;durP1;ratioP1;P2;durP2;ratioP2
14373;SDS011;7270;49.004;12.066;2023-03-11T00:02:19;1.40;;;1.30;;
14373;SDS011;7270;49.004;12.066;2023-03-11T00:04:45;1.47;;;1.37;;
14373;SDS011;7270;49.004;12.066;2023-03-11T00:07:11;1.40;;;1.30;;
14373;SDS011;7270;49.004;12.066;2023-03-11T00:09:38;1.50;;;1.40;;
14373;SDS011;7270;49.004;12.066;2023-03-11T00:12:06;1.50;;;1.40;;
14373;SDS011;7270;49.004;12.066;2023-03-11T00:14:32;1.27;;;1.20;;
14373;SDS011;7270;49.004;12.066;2023-03-11T00:16:59;1.40;;;1.30;;
14373;SDS011;7270;49.004;12.066;2023-03-11T00:19:25;1.33;;;1.23;;
14373;SDS011;7270;49.004;12.066;2023-03-11T00:21:51;1.23;;;1.20;;
14373;SDS011;7270;49.004;12.066;2023-03-11T00:24:17;1.20;;;1.20;;
14373;SDS011;7270;49.004;12.066;2023-03-11T00:26:44;1.40;;;1.30;;
14373;SDS011;7270;49.004;12.066;2023-03-11T00:29:11;1.40;;;1.30;;
14373;SDS011;7270;49.004;12.066;2023-03-11T00:31:38;1.40;;;1.30;;
14373;SDS011;7270;49.004;12.066;2023-03-11T00:34:04;1.30;;;1.20;;
14373;SDS011;7270;49.004;12.066;2023-03-11T00:36:31;1.40;;;1.30;;
14373;SDS011;7270;49.004;12.066;2023-03-11T00:38:58;1.40;;;1.30;;
14373;SDS011;7270;49.004;12.066;2023-03-11T00:41:26;1.40;;;1.30;;
14373;SDS011;7270;49.004;12.066;2023-03-11T00:43:52;1.40;;;1.30;;
14373;SDS011;7270;49.004;12.066;2023-03-11T00:46:20;1.43;;;1.33;;
14373;SDS011;7270;49.004;12.066;2023-03-11T00:48:46;1.43;;;1.33;;
14373;SDS011;7270;49.004;12.066;2023-03-11T00:51:15;1.53;;;1.43;;
14373;SDS011;7270;49.004;12.066;2023-03-11T00:53:41;1.60;;;1.50;;
14373;SDS011;7270;49.004;12.066;2023-03-11T00:56:08;1.50;;;1.40;;
14373;SDS011;7270;49.004;12.066;2023-03-11T00:58:35;1.40;;;1.30;;
14373;SDS011;7270;49.004;12.066;2023-03-11T01:01:05;1.50;;;1.40;;
14373;SDS011;7270;49.004;12.066;2023-03-11T01:03:33;1.40;;;1.30;;
14373;SDS011;7270;49.004;12.066;2023-03-11T01:06:00;1.40;;;1.30;;
14373;SDS011;7270;49.004;12.066;2023-03-11T01:08:26;1.40;;;1.30;;
14373;SDS011;7270;49.004;12.066;2023-03-11T01:10:53;1.40;;;1.30;;
14373;SDS011;7270;49.004;12.066;2023-03-11T01:13:20;1.40;;;1.30;;
14373;SDS011;7270;49.004;12.066;2023-03-11T01:15:46;1.50;;;1.40;;
14373;SDS011;7270;49.004;12.066;2023-03-11T01:18:12;1.40;;;1.30;;
14373;SDS011;7270;49.004;12.066;2023-03-11T01:20:41;1.40;;;1.30;;
14373;SDS011;7270;49.004;12.066;2023-03-11T01:23:07;1.40;;;1.30;;
14373;SDS011;7270;49.004;12.066;2023-03-11T01:25:34;1.47;;;1.37;;
14373;SDS011;7270;49.004;12.066;2023-03-11T01:28:00;1.30;;;1.20;;
14373;SDS011;7270;49.004;12.066;2023-03-11T01:30:27;1.50;;;1.40;;
14373;SDS011;7270;49.004;12.066;2023-03-11T01:32:54;1.40;;;1.30;;
14373;SDS011;7270;49.004;12.066;2023-03-11T01:35:21;1.40;;;1.30;;
14373;SDS011;7270;49.004;12.066;2023-03-11T01:37:49;1.40;;;1.30;;
14373;SDS011;7270;49.004;12.066;2023-03-11T01:40:17;1.40;;;1.30;;
14373;SDS011;7270;49.004;12.066;2023-03-11T01:42:44;1.50;;;1.40;;
14373;SDS011;7270;49.004;12.066;2023-03-11T01:47:52;1.50;;;1.40;;
14373;SDS011;7270;49.004;12.066;2023-03-11T01:50:19;1.30;;;1.20;;
14373;SDS011;7270;49.004;12.066;2023-03-11T01:52:45;1.50;;;1.40;;
14373;SDS011;7270;49.004;12.066;2023-03-11T01:55:14;1.40;;;1.30;;
14373;SDS011;7270;49.004;12.066;2023-03-11T01:57:42;1.57;;;1.47;;
14373;SDS011;7270;49.004;12.066;2023-03-11T02:00:10;1.40;;;1.30;;
14373;SDS011;7270;49.004;12.066;2023-03-11T02:02:39;1.37;;;1.27;;
14373;SDS011;7270;49.004;12.066;2023-03-11T02:05:06;1.40;;;1.30;;
14373;SDS011;7270;49.004;12.066;2023-03-11T02:07:33;1.60;;;1.50;;
14373;SDS011;7270;49.004;12.066;2023-03-11T02:09:59;1.40;;;1.30;;
14373;SDS011;7270;49.004;12.066;2023-03-11T02:12:28;1.30;;;1.20;;
14373;SDS011;7270;49.004;12.066;2023-03-11T02:14:56;1.40;;;1.30;;
14373;SDS011;7270;49.004;12.066;2023-03-11T02:17:22;1.50;;;1.40;;
14373;SDS011;7270;49.004;12.066;2023-03-11T02:19:52;1.37;;;1.27;;
14373;SDS011;7270;49.004;12.066;2023-03-11T02:22:22;1.50;;;1.40;;
14373;SDS011;7270;49.004;12.066;2023-03-11T02:24:49;1.30;;;1.20;;
14373;SDS011;7270;49.004;12.066;2023-03-11T02:27:20;1.40;;;1.30;;
14373;SDS011;7270;49.004;12.066;2023-03-11T02:29:47;1.40;;;1.30;;
14373;SDS011;7270;49.004;12.066;2023-03-11T02:32:15;1.50;;;1.40;;
14373;SDS011;7270;49.004;12.066;2023-03-11T02:34:41;1.30;;;1.20;;
14373;SDS011;7270;49.004;12.066;2023-03-11T02:37:09;1.40;;;1.30;;
14373;SDS011;7270;49.004;12.066;2023-03-11T02:39:36;1.40;;;1.30;;
14373;SDS011;7270;49.004;12.066;2023-03-11T02:42:03;1.40;;;1.30;;
14373;SDS011;7270;49.004;12.066;2023-03-11T02:44:32;1.30;;;1.20;;
14373;SDS011;7270;49.004;12.066;2023-03-11T02:46:58;1.40;;;1.30;;
14373;SDS011;7270;49.004;12.066;2023-03-11T02:49:25;1.40;;;1.30;;
14373;SDS011;7270;49.004;12.066;2023-03-11T02:51:51;1.40;;;1.30;;
14373;SDS011;7270;49.004;12.066;2023-03-11T02:54:17;1.50;;;1.40;;
14373;SDS011;7270;49.004;12.066;2023-03-11T02:56:44;1.50;;;1.40;;
14373;SDS011;7270;49.004;12.066;2023-03-11T02:59:10;1.40;;;1.30;;
14373;SDS011;7270;49.004;12.066;2023-03-11T03:01:38;1.50;;;1.40;;
14373;SDS011;7270;49.004;12.066;2023-03-11T03:04:04;1.40;;;1.30;;
14373;SDS011;7270;49.004;12.066;2023-03-11T03:06:30;1.40;;;1.30;;
14373;SDS011;7270;49.004;12.066;2023-03-11T03:08:57;1.40;;;1.30;;
14373;SDS011;7270;49.004;12.066;2023-03-11T03:11:23;1.40;;;1.30;;
14373;SDS011;7270;49.004;12.066;2023-03-11T03:13:49;1.60;;;1.50;;
14373;SDS011;7270;49.004;12.066;2023-03-11T03:16:16;1.37;;;1.30;;
14373;SDS011;7270;49.004;12.066;2023-03-11T03:18:43;1.60;;;1.50;;
14373;SDS011;7270;49.004;12.066;2023-03-11T03:21:09;1.40;;;1.30;;
14373;SDS011;7270;49.004;12.066;2023-03-11T03:23:36;1.40;;;1.30;;
14373;SDS011;7270;49.004;12.066;2023-03-11T03:26:02;1.40;;;1.30;;
14373;SDS011;7270;49.004;12.066;2023-03-11T03:28:29;1.50;;;1.40;;
14373;SDS011;7270;49.004;12.066;2023-03-11T03:30:55;1.43;;;1.33;;
14373;SDS011;7270;49.004;12.066;2023-03-11T03:33:21;1.40;;;1.30;;
14373;SDS011;7270;49.004;12.066;2023-03-11T03:35:49;1.40;;;1.30;;
14373;SDS011;7270;49.004;12.066;2023-03-11T03:38:16;1.40;;;1.30;;
14373;SDS011;7270;49.004;12.066;2023-03-11T03:40:44;1.40;;;1.30;;
14373;SDS011;7270;49.004;12.066;2023-03-11T03:43:11;1.40;;;1.30;;
14373;SDS011;7270;49.004;12.066;2023-03-11T03:45:37;1.40;;;1.30;;
14373;SDS011;7270;49.004;12.066;2023-03-11T03:48:03;1.40;;;1.30;;
14373;SDS011;7270;49.004;12.066;2023-03-11T03:50:30;1.40;;;1.30;;
14373;SDS011;7270;49.004;12.066;2023-03-11T03:52:57;1.40;;;1.30;;
14373;SDS011;7270;49.004;12.066;2023-03-11T03:55:24;1.40;;;1.30;;
14373;SDS011;7270;49.004;12.066;2023-03-11T03:57:50;1.60;;;1.50;;
14373;SDS011;7270;49.004;12.066;2023-03-11T04:00:17;1.40;;;1.30;;
14373;SDS011;7270;49.004;12.066;2023-03-11T04:02:43;1.47;;;1.37;;
14373;SDS011;7270;49.004;12.066;2023-03-11T04:05:09;1.50;;;1.40;;
14373;SDS011;7270;49.004;12.066;2023-03-11T04:07:36;1.40;;;1.30;;
14373;SDS011;7270;49.004;12.066;2023-03-11T04:10:04;1.50;;;1.40;;
14373;SDS011;7270;49.004;12.066;2023-03-11T04:12:31;1.40;;;1.30;;
14373;SDS011;7270;49.004;12.066;2023-03-11T04:14:57;1.40;;;1.30;;
14373;SDS011;7270;49.004;12.066;2023-03-11T04:17:23;1.40;;;1.30;;
14373;SDS011;7270;49.004;12.066;2023-03-11T04:19:49;1.40;;;1.30;;
14373;SDS011;7270;49.004;12.066;2023-03-11T04:22:16;1.57;;;1.47;;
14373;SDS011;7270;49.004;12.066;2023-03-11T04:24:42;1.40;;;1.30;;
14373;SDS011;7270;49.004;12.066;2023-03-11T04:27:10;1.30;;;1.20;;
14373;SDS011;7270;49.004;12.066;2023-03-11T04:29:36;1.40;;;1.30;;
14373;SDS011;7270;49.004;12.066;2023-03-11T04:32:03;1.40;;;1.30;;
14373;SDS011;7270;49.004;12.066;2023-03-11T04:34:29;1.40;;;1.30;;
14373;SDS011;7270;49.004;12.066;2023-03-11T04:36:56;1.40;;;1.30;;
14373;SDS011;7270;49.004;12.066;2023-03-11T04:39:22;1.40;;;1.30;;
14373;SDS011;7270;49.004;12.066;2023-03-11T04:41:48;1.50;;;1.40;;
14373;SDS011;7270;49.004;12.066;2023-03-11T04:44:16;1.40;;;1.30;;
14373;SDS011;7270;49.004;12.066;2023-03-11T04:46:42;1.40;;;1.30;;
14373;SDS011;7270;49.004;12.066;2023-03-11T04:49:09;1.50;;;1.40;;
14373;SDS011;7270;49.004;12.066;2023-03-11T04:51:35;1.40;;;1.30;;
14373;SDS011;7270;49.004;12.066;2023-03-11T04:54:04;1.40;;;1.30;;
14373;SDS011;7270;49.004;12.066;2023-03-11T04:56:30;1.30;;;1.20;;
14373;SDS011;7270;49.004;12.066;2023-03-11T04:58:56;1.50;;;1.40;;
14373;SDS011;7270;49.004;12.066;2023-03-11T05:01:24;1.60;;;1.50;;
14373;SDS011;7270;49.004;12.066;2023-03-11T05:03:50;1.40;;;1.30;;
14373;SDS011;7270;49.004;12.066;2023-03-11T05:06:17;1.40;;;1.30;;
14373;SDS011;7270;49.004;12.066;2023-03-11T05:08:43;1.50;;;1.40;;
14373;SDS011;7270;49.004;12.066;2023-03-11T05:11:09;1.20;;;1.20;;
14373;SDS011;7270;49.004;12.066;2023-03-11T05:13:35;1.40;;;1.30;;
14373;SDS011;7270;49.004;12.066;2023-03-11T05:16:02;1.43;;;1.33;;
14373;SDS011;7270;49.004;12.066;2023-03-11T05:18:30;1.30;;;1.20;;
14373;SDS011;7270;49.004;12.066;2023-03-11T05:20:56;1.40;;;1.30;;
14373;SDS011;7270;49.004;12.066;2023-03-11T05:23:22;1.40;;;1.30;;
14373;SDS011;7270;49.004;12.066;2023-03-11T05:25:49;1.40;;;1.30;;
14373;SDS011;7270;49.004;12.066;2023-03-11T05:28:15;1.30;;;1.20;;
14373;SDS011;7270;49.004;12.066;2023-03-11T05:30:41;1.50;;;1.40;;
14373;SDS011;7270;49.004;12.066;2023-03-11T05:33:08;1.40;;;1.30;;
14373;SDS011;7270;49.004;12.066;2023-03-11T05:35:35;1.40;;;1.30;;
14373;SDS011;7270;49.004;12.066;2023-03-11T05:38:02;1.30;;;1.20;;
14373;SDS011;7270;49.004;12.066;2023-03-11T05:40:28;1.30;;;1.20;;
14373;SDS011;7270;49.004;12.066;2023-03-11T05:42:54;1.40;;;1.30;;
14373;SDS011;7270;49.004;12.066;2023-03-11T05:45:20;1.50;;;1.40;;
14373;SDS011;7270;49.004;12.066;2023-03-11T05:47:47;1.40;;;1.30;;
14373;SDS011;7270;49.004;12.066;2023-03-11T05:50:13;1.40;;;1.30;;
14373;SDS011;7270;49.004;12.066;2023-03-11T05:52:41;1.40;;;1.30;;
14373;SDS011;7270;49.004;12.066;2023-03-11T05:55:08;1.50;;;1.40;;
14373;SDS011;7270;49.004;12.066;2023-03-11T05:57:36;1.50;;;1.40;;
14373;SDS011;7270;49.004;12.066;2023-03-11T06:00:02;1.30;;;1.20;;
14373;SDS011;7270;49.004;12.066;2023-03-11T06:02:31;1.50;;;1.40;;
14373;SDS011;7270;49.004;12.066;2023-03-11T06:04:57;1.50;;;1.40;;
14373;SDS011;7270;49.004;12.066;2023-03-11T06:07:23;1.40;;;1.30;;
14373;SDS011;7270;49.004;12.066;2023-03-11T06:09:51;1.30;;;1.20;;
14373;SDS011;7270;49.004;12.066;2023-03-11T06:12:17;1.40;;;1.30;;
14373;SDS011;7270;49.004;12.066;2023-03-11T06:14:44;1.30;;;1.20;;
14373;SDS011;7270;49.004;12.066;2023-03-11T06:17:10;1.40;;;1.30;;
14373;SDS011;7270;49.004;12.066;2023-03-11T06:19:37;1.40;;;1.30;;
14373;SDS011;7270;49.004;12.066;2023-03-11T06:22:03;1.40;;;1.30;;
14373;SDS011;7270;49.004;12.066;2023-03-11T06:24:29;1.40;;;1.30;;
14373;SDS011;7270;49.004;12.066;2023-03-11T06:26:57;1.40;;;1.30;;
14373;SDS011;7270;49.004;12.066;2023-03-11T06:29:23;1.40;;;1.30;;
14373;SDS011;7270;49.004;12.066;2023-03-11T06:31:50;1.50;;;1.40;;
14373;SDS011;7270;49.004;12.066;2023-03-11T06:34:17;1.40;;;1.30;;
14373;SDS011;7270;49.004;12.066;2023-03-11T06:36:43;1.40;;;1.30;;
14373;SDS011;7270;49.004;12.066;2023-03-11T06:39:11;1.40;;;1.30;;
14373;SDS011;7270;49.004;12.066;2023-03-11T06:41:38;1.40;;;1.30;;
14373;SDS011;7270;49.004;12.066;2023-03-11T06:44:05;1.50;;;1.40;;
14373;SDS011;7270;49.004;12.066;2023-03-11T06:46:32;1.50;;;1.40;;
14373;SDS011;7270;49.004;12.066;2023-03-11T06:48:58;1.47;;;1.37;;
14373;SDS011;7270;49.004;12.066;2023-03-11T06:51:24;1.47;;;1.37;;
14373;SDS011;7270;49.004;12.066;2023-03-11T06:53:51;1.40;;;1.30;;
14373;SDS011;7270;49.004;12.066;2023-03-11T06:56:18;1.40;;;1.30;;
14373;SDS011;7270;49.004;12.066;2023-03-11T06:58:44;1.50;;;1.40;;
14373;SDS011;7270;49.004;12.066;2023-03-11T07:01:13;1.50;;;1.40;;
14373;SDS011;7270;49.004;12.066;2023-03-11T07:03:40;1.53;;;1.43;;
14373;SDS011;7270;49.004;12.066;2023-03-11T07:06:09;1.47;;;1.37;;
14373;SDS011;7270;49.004;12.066;2023-03-11T07:08:36;1.40;;;1.30;;
14373;SDS011;7270;49.004;12.066;2023-03-11T07:11:11;1.40;;;1.30;;
14373;SDS011;7270;49.004;12.066;2023-03-11T07:13:38;1.40;;;1.30;;
14373;SDS011;7270;49.004;12.066;2023-03-11T07:16:05;1.40;;;1.30;;
14373;SDS011;7270;49.004;12.066;2023-03-11T07:18:40;1.40;;;1.30;;
14373;SDS011;7270;49.004;12.066;2023-03-11T07:21:06;1.40;;;1.30;;
14373;SDS011;7270;49.004;12.066;2023-03-11T07:23:33;1.40;;;1.30;;
14373;SDS011;7270;49.004;12.066;2023-03-11T07:26:00;1.40;;;1.30;;
14373;SDS011;7270;49.004;12.066;2023-03-11T07:28:27;1.40;;;1.30;;
14373;SDS011;7270;49.004;12.066;2023-03-11T07:30:56;1.40;;;1.30;;
14373;SDS011;7270;49.004;12.066;2023-03-11T07:33:23;1.37;;;1.27;;
14373;SDS011;7270;49.004;12.066;2023-03-11T07:35:51;1.40;;;1.30;;
14373;SDS011;7270;49.004;12.066;2023-03-11T07:38:17;1.40;;;1.30;;
14373;SDS011;7270;49.004;12.066;2023-03-11T07:40:56;1.40;;;1.30;;
14373;SDS011;7270;49.004;12.066;2023-03-11T07:43:23;1.43;;;1.33;;
14373;SDS011;7270;49.004;12.066;2023-03-11T07:45:49;1.37;;;1.30;;
14373;SDS011;7270;49.004;12.066;2023-03-11T07:48:15;1.37;;;1.27;;
14373;SDS011;7270;49.004;12.066;2023-03-11T07:50:42;1.40;;;1.30;;
14373;SDS011;7270;49.004;12.066;2023-03-11T07:53:09;1.30;;;1.20;;
14373;SDS011;7270;49.004;12.066;2023-03-11T07:55:36;1.50;;;1.40;;
14373;SDS011;7270;49.004;12.066;2023-03-11T07:58:02;1.57;;;1.47;;
14373;SDS011;7270;49.004;12.066;2023-03-11T08:00:28;1.53;;;1.43;;
14373;SDS011;7270;49.004;12.066;2023-03-11T08:02:55;1.40;;;1.30;;
14373;SDS011;7270;49.004;12.066;2023-03-11T08:05:24;1.40;;;1.30;;
14373;SDS011;7270;49.004;12.066;2023-03-11T08:07:57;1.43;;;1.33;;
14373;SDS011;7270;49.004;12.066;2023-03-11T08:10:25;1.40;;;1.30;;
14373;SDS011;7270;49.004;12.066;2023-03-11T08:12:51;1.50;;;1.40;;
14373;SDS011;7270;49.004;12.066;2023-03-11T08:15:18;1.50;;;1.40;;
14373;SDS011;7270;49.004;12.066;2023-03-11T08:17:44;1.40;;;1.30;;
14373;SDS011;7270;49.004;12.066;2023-03-11T08:20:11;1.40;;;1.30;;
14373;SDS011;7270;49.004;12.066;2023-03-11T08:22:37;1.50;;;1.40;;
14373;SDS011;7270;49.004;12.066;2023-03-11T08:25:04;1.53;;;1.43;;
14373;SDS011;7270;49.004;12.066;2023-03-11T08:27:32;1.50;;;1.40;;
14373;SDS011;7270;49.004;12.066;2023-03-11T08:29:58;1.50;;;1.40;;
14373;SDS011;7270;49.004;12.066;2023-03-11T08:32:24;1.50;;;1.40;;
14373;SDS011;7270;49.004;12.066;2023-03-11T08:34:51;1.50;;;1.40;;
14373;SDS011;7270;49.004;12.066;2023-03-11T08:37:17;1.30;;;1.20;;
14373;SDS011;7270;49.004;12.066;2023-03-11T08:39:43;1.40;;;1.30;;
14373;SDS011;7270;49.004;12.066;2023-03-11T08:42:10;1.40;;;1.30;;
14373;SDS011;7270;49.004;12.066;2023-03-11T08:44:37;1.40;;;1.30;;
14373;SDS011;7270;49.004;12.066;2023-03-11T08:47:04;1.60;;;1.50;;
14373;SDS011;7270;49.004;12.066;2023-03-11T08:49:30;1.33;;;1.23;;
14373;SDS011;7270;49.004;12.066;2023-03-11T08:51:57;1.20;;;1.20;;
14373;SDS011;7270;49.004;12.066;2023-03-11T08:54:24;1.10;;;1.10;;
14373;SDS011;7270;49.004;12.066;2023-03-11T08:56:50;1.03;;;1.03;;
14373;SDS011;7270;49.004;12.066;2023-03-11T08:59:16;0.90;;;0.90;;
14373;SDS011;7270;49.004;12.066;2023-03-11T09:01:44;1.10;;;1.10;;
14373;SDS011;7270;49.004;12.066;2023-03-11T09:04:12;1.00;;;1.00;;
14373;SDS011;7270;49.004;12.066;2023-03-11T09:06:40;1.10;;;1.10;;
14373;SDS011;7270;49.004;12.066;2023-03-11T09:09:08;1.00;;;1.00;;
14373;SDS011;7270;49.004;12.066;2023-03-11T09:11:34;1.10;;;1.10;;
14373;SDS011;7270;49.004;12.066;2023-03-11T09:14:01;1.10;;;1.10;;
14373;SDS011;7270;49.004;12.066;2023-03-11T09:16:28;1.00;;;1.00;;
14373;SDS011;7270;49.004;12.066;2023-03-11T09:18:55;1.00;;;1.00;;
14373;SDS011;7270;49.004;12.066;2023-03-11T09:21:24;1.10;;;1.10;;
14373;SDS011;7270;49.004;12.066;2023-03-11T09:23:50;1.20;;;1.20;;
14373;SDS011;7270;49.004;12.066;2023-03-11T09:26:17;1.10;;;1.10;;
14373;SDS011;7270;49.004;12.066;2023-03-11T09:28:43;1.10;;;1.10;;
14373;SDS011;7270;49.004;12.066;2023-03-11T09:31:12;1.10;;;1.10;;
14373;SDS011;7270;49.004;12.066;2023-03-11T09:33:40;1.00;;;1.00;;
14373;SDS011;7270;49.004;12.066;2023-03-11T09:36:11;1.07;;;1.07;;
14373;SDS011;7270;49.004;12.066;2023-03-11T09:38:37;1.10;;;1.10;;
14373;SDS011;7270;49.004;12.066;2023-03-11T09:41:05;1.20;;;1.20;;
14373;SDS011;7270;49.004;12.066;2023-03-11T09:43:41;1.10;;;1.10;;
14373;SDS011;7270;49.004;12.066;2023-03-11T09:46:15;1.20;;;1.20;;
14373;SDS011;7270;49.004;12.066;2023-03-11T09:48:48;1.10;;;1.10;;
14373;SDS011;7270;49.004;12.066;2023-03-11T09:51:20;1.10;;;1.10;;
14373;SDS011;7270;49.004;12.066;2023-03-11T09:53:48;1.10;;;1.10;;
14373;SDS011;7270;49.004;12.066;2023-03-11T09:56:17;1.10;;;1.10;;
14373;SDS011;7270;49.004;12.066;2023-03-11T09:58:45;1.30;;;1.30;;
14373;SDS011;7270;49.004;12.066;2023-03-11T10:01:14;1.30;;;1.30;;
14373;SDS011;7270;49.004;12.066;2023-03-11T10:03:41;1.10;;;1.10;;
14373;SDS011;7270;49.004;12.066;2023-03-11T10:06:12;1.30;;;1.20;;
14373;SDS011;7270;49.004;12.066;2023-03-11T10:08:41;1.60;;;1.50;;
14373;SDS011;7270;49.004;12.066;2023-03-11T10:11:15;1.80;;;1.70;;
14373;SDS011;7270;49.004;12.066;2023-03-11T10:13:44;1.50;;;1.40;;
14373;SDS011;7270;49.004;12.066;2023-03-11T10:16:18;1.60;;;1.50;;
14373;SDS011;7270;49.004;12.066;2023-03-11T10:18:52;1.50;;;1.40;;
14373;SDS011;7270;49.004;12.066;2023-03-11T10:21:24;1.60;;;1.50;;
14373;SDS011;7270;49.004;12.066;2023-03-11T10:23:57;1.50;;;1.40;;
14373;SDS011;7270;49.004;12.066;2023-03-11T10:26:26;1.70;;;1.60;;
14373;SDS011;7270;49.004;12.066;2023-03-11T10:28:57;1.60;;;1.50;;
14373;SDS011;7270;49.004;12.066;2023-03-11T10:31:26;1.57;;;1.47;;
14373;SDS011;7270;49.004;12.066;2023-03-11T10:33:53;1.50;;;1.40;;
14373;SDS011;7270;49.004;12.066;2023-03-11T10:36:22;1.50;;;1.40;;
14373;SDS011;7270;49.004;12.066;2023-03-11T10:38:51;1.50;;;1.40;;
14373;SDS011;7270;49.004;12.066;2023-03-11T10:41:20;1.50;;;1.40;;
14373;SDS011;7270;49.004;12.066;2023-03-11T10:43:50;1.50;;;1.40;;
14373;SDS011;7270;49.004;12.066;2023-03-11T10:46:18;1.70;;;1.60;;
14373;SDS011;7270;49.004;12.066;2023-03-11T10:48:45;1.60;;;1.50;;
14373;SDS011;7270;49.004;12.066;2023-03-11T10:51:11;1.30;;;1.30;;
14373;SDS011;7270;49.004;12.066;2023-03-11T10:53:42;1.50;;;1.40;;
14373;SDS011;7270;49.004;12.066;2023-03-11T10:56:09;1.60;;;1.50;;
14373;SDS011;7270;49.004;12.066;2023-03-11T10:58:50;1.40;;;1.30;;
14373;SDS011;7270;49.004;12.066;2023-03-11T11:01:17;1.40;;;1.30;;
14373;SDS011;7270;49.004;12.066;2023-03-11T11:03:46;1.50;;;1.40;;
14373;SDS011;7270;49.004;12.066;2023-03-11T11:06:17;1.57;;;1.47;;
14373;SDS011;7270;49.004;12.066;2023-03-11T11:08:44;1.70;;;1.60;;
14373;SDS011;7270;49.004;12.066;2023-03-11T11:11:19;1.67;;;1.57;;
14373;SDS011;7270;49.004;12.066;2023-03-11T11:13:54;1.50;;;1.40;;
14373;SDS011;7270;49.004;12.066;2023-03-11T11:16:20;1.60;;;1.50;;
14373;SDS011;7270;49.004;12.066;2023-03-11T11:18:47;1.40;;;1.30;;
14373;SDS011;7270;49.004;12.066;2023-03-11T11:21:15;1.60;;;1.50;;
14373;SDS011;7270;49.004;12.066;2023-03-11T11:23:43;1.40;;;1.30;;
14373;SDS011;7270;49.004;12.066;2023-03-11T11:26:15;1.40;;;1.30;;
14373;SDS011;7270;49.004;12.066;2023-03-11T11:28:42;1.40;;;1.30;;
14373;SDS011;7270;49.004;12.066;2023-03-11T11:33:53;1.50;;;1.40;;
14373;SDS011;7270;49.004;12.066;2023-03-11T11:36:20;1.60;;;1.50;;
14373;SDS011;7270;49.004;12.066;2023-03-11T11:38:48;1.60;;;1.50;;
14373;SDS011;7270;49.004;12.066;2023-03-11T11:41:16;1.53;;;1.43;;
14373;SDS011;7270;49.004;12.066;2023-03-11T11:43:45;1.40;;;1.30;;
14373;SDS011;7270;49.004;12.066;2023-03-11T11:46:17;1.53;;;1.43;;
14373;SDS011;7270;49.004;12.066;2023-03-11T11:48:46;1.50;;;1.40;;
14373;SDS011;7270;49.004;12.066;2023-03-11T11:51:17;1.30;;;1.20;;
14373;SDS011;7270;49.004;12.066;2023-03-11T11:53:45;1.50;;;1.40;;
14373;SDS011;7270;49.004;12.066;2023-03-11T11:56:13;1.50;;;1.40;;
14373;SDS011;7270;49.004;12.066;2023-03-11T11:58:40;1.40;;;1.30;;
14373;SDS011;7270;49.004;12.066;2023-03-11T12:01:11;1.40;;;1.30;;
14373;SDS011;7270;49.004;12.066;2023-03-11T12:03:43;1.40;;;1.30;;
14373;SDS011;7270;49.004;12.066;2023-03-11T12:06:14;1.50;;;1.40;;
14373;SDS011;7270;49.004;12.066;2023-03-11T12:08:46;1.60;;;1.50;;
14373;SDS011;7270;49.004;12.066;2023-03-11T12:11:17;1.40;;;1.30;;
14373;SDS011;7270;49.004;12.066;2023-03-11T12:13:47;1.60;;;1.50;;
14373;SDS011;7270;49.004;12.066;2023-03-11T12:16:19;1.40;;;1.30;;
14373;SDS011;7270;49.004;12.066;2023-03-11T12:18:49;1.60;;;1.50;;
14373;SDS011;7270;49.004;12.066;2023-03-11T12:21:19;1.50;;;1.40;;
14373;SDS011;7270;49.004;12.066;2023-03-11T12:23:55;1.40;;;1.30;;
14373;SDS011;7270;49.004;12.066;2023-03-11T12:26:24;1.60;;;1.50;;
14373;SDS011;7270;49.004;12.066;2023-03-11T12:28:53;1.50;;;1.40;;
14373;SDS011;7270;49.004;12.066;2023-03-11T12:31:20;1.50;;;1.40;;
14373;SDS011;7270;49.004;12.066;2023-03-11T12:33:49;1.60;;;1.50;;
14373;SDS011;7270;49.004;12.066;2023-03-11T12:36:28;1.40;;;1.30;;
14373;SDS011;7270;49.004;12.066;2023-03-11T12:38:56;1.70;;;1.60;;
14373;SDS011;7270;49.004;12.066;2023-03-11T12:41:36;1.40;;;1.30;;
14373;SDS011;7270;49.004;12.066;2023-03-11T12:44:10;1.50;;;1.40;;
14373;SDS011;7270;49.004;12.066;2023-03-11T12:49:36;1.60;;;1.50;;
14373;SDS011;7270;49.004;12.066;2023-03-11T12:52:04;1.50;;;1.40;;
14373;SDS011;7270;49.004;12.066;2023-03-11T12:54:32;1.40;;;1.30;;
14373;SDS011;7270;49.004;12.066;2023-03-11T12:56:59;1.50;;;1.40;;
14373;SDS011;7270;49.004;12.066;2023-03-11T12:59:34;1.47;;;1.37;;
14373;SDS011;7270;49.004;12.066;2023-03-11T13:02:11;1.50;;;1.40;;
14373;SDS011;7270;49.004;12.066;2023-03-11T13:04:48;1.50;;;1.40;;
14373;SDS011;7270;49.004;12.066;2023-03-11T13:07:27;1.60;;;1.50;;
14373;SDS011;7270;49.004;12.066;2023-03-11T13:10:10;1.70;;;1.60;;
14373;SDS011;7270;49.004;12.066;2023-03-11T13:12:40;1.60;;;1.50;;
14373;SDS011;7270;49.004;12.066;2023-03-11T13:15:24;1.50;;;1.40;;
14373;SDS011;7270;49.004;12.066;2023-03-11T13:17:59;1.50;;;1.40;;
14373;SDS011;7270;49.004;12.066;2023-03-11T13:20:42;1.60;;;1.50;;
14373;SDS011;7270;49.004;12.066;2023-03-11T13:23:19;1.50;;;1.40;;
14373;SDS011;7270;49.004;12.066;2023-03-11T13:25:57;1.50;;;1.40;;
14373;SDS011;7270;49.004;12.066;2023-03-11T13:28:41;1.40;;;1.30;;
14373;SDS011;7270;49.004;12.066;2023-03-11T13:31:15;1.60;;;1.50;;
14373;SDS011;7270;49.004;12.066;2023-03-11T13:33:47;1.50;;;1.40;;
14373;SDS011;7270;49.004;12.066;2023-03-11T13:36:18;1.50;;;1.40;;
14373;SDS011;7270;49.004;12.066;2023-03-11T13:41:35;1.60;;;1.50;;
14373;SDS011;7270;49.004;12.066;2023-03-11T13:44:04;1.50;;;1.40;;
14373;SDS011;7270;49.004;12.066;2023-03-11T13:46:36;1.70;;;1.60;;
14373;SDS011;7270;49.004;12.066;2023-03-11T13:49:04;1.40;;;1.30;;
14373;SDS011;7270;49.004;12.066;2023-03-11T13:51:34;1.60;;;1.50;;
14373;SDS011;7270;49.004;12.066;2023-03-11T13:54:01;1.50;;;1.40;;
14373;SDS011;7270;49.004;12.066;2023-03-11T13:56:31;1.50;;;1.40;;
14373;SDS011;7270;49.004;12.066;2023-03-11T14:01:41;1.40;;;1.30;;
14373;SDS011;7270;49.004;12.066;2023-03-11T14:04:12;1.50;;;1.40;;
14373;SDS011;7270;49.004;12.066;2023-03-11T14:06:41;1.60;;;1.50;;
14373;SDS011;7270;49.004;12.066;2023-03-11T14:09:14;1.70;;;1.60;;
14373;SDS011;7270;49.004;12.066;2023-03-11T14:11:42;1.50;;;1.40;;
14373;SDS011;7270;49.004;12.066;2023-03-11T14:14:18;1.53;;;1.43;;
14373;SDS011;7270;49.004;12.066;2023-03-11T14:16:52;1.50;;;1.40;;
14373;SDS011;7270;49.004;12.066;2023-03-11T14:19:18;1.70;;;1.60;;
14373;SDS011;7270;49.004;12.066;2023-03-11T14:21:45;1.40;;;1.30;;
14373;SDS011;7270;49.004;12.066;2023-03-11T14:24:14;1.47;;;1.37;;
14373;SDS011;7270;49.004;12.066;2023-03-11T14:26:41;1.60;;;1.50;;
14373;SDS011;7270;49.004;12.066;2023-03-11T14:29:08;1.40;;;1.30;;
14373;SDS011;7270;49.004;12.066;2023-03-11T14:31:36;1.60;;;1.50;;
14373;SDS011;7270;49.004;12.066;2023-03-11T14:34:11;1.50;;;1.40;;
14373;SDS011;7270;49.004;12.066;2023-03-11T14:36:39;1.63;;;1.53;;
14373;SDS011;7270;49.004;12.066;2023-03-11T14:39:20;1.50;;;1.40;;
14373;SDS011;7270;49.004;12.066;2023-03-11T14:41:47;1.50;;;1.40;;
14373;SDS011;7270;49.004;12.066;2023-03-11T14:44:14;1.50;;;1.40;;
14373;SDS011;7270;49.004;12.066;2023-03-11T14:46:41;1.50;;;1.40;;
14373;SDS011;7270;49.004;12.066;2023-03-11T14:49:11;1.50;;;1.40;;
14373;SDS011;7270;49.004;12.066;2023-03-11T14:51:41;1.50;;;1.40;;
14373;SDS011;7270;49.004;12.066;2023-03-11T14:54:13;1.50;;;1.40;;
14373;SDS011;7270;49.004;12.066;2023-03-11T14:56:41;1.60;;;1.50;;
14373;SDS011;7270;49.004;12.066;2023-03-11T14:59:09;1.50;;;1.40;;
14373;SDS011;7270;49.004;12.066;2023-03-11T15:01:38;1.50;;;1.40;;
14373;SDS011;7270;49.004;12.066;2023-03-11T15:04:10;1.50;;;1.40;;
14373;SDS011;7270;49.004;12.066;2023-03-11T15:06:39;1.43;;;1.33;;
14373;SDS011;7270;49.004;12.066;2023-03-11T15:09:07;1.50;;;1.40;;